sensor_id;sensor_type;location;lat;lon;timestamp;pressure;altitude;pressure_sealevel;temperature;humidity
73858;BME280;62195;55.030;73.278;2022-07-10T12:21:49;99839.16;;;27.82;36.77
73858;BME280;62195;55.030;73.278;2022-07-10T12:24:16;99839.97;;;27.76;37.79
73858;BME280;62195;55.030;73.278;2022-07-10T12:26:44;99841.03;;;27.75;38.70
73858;BME280;62195;55.030;73.278;2022-07-10T12:29:29;99839.56;;;27.72;38.17
73858;BME280;62195;55.030;73.278;2022-07-10T12:32:00;99829.97;;;28.25;37.63
73858;BME280;62195;55.030;73.278;2022-07-10T12:37:13;99837.50;;;28.50;37.40
73858;BME280;62195;55.030;73.278;2022-07-10T12:39:48;99840.84;;;28.59;37.96
73858;BME280;62195;55.030;73.278;2022-07-10T12:42:28;99842.94;;;28.63;37.55
73858;BME280;62195;55.030;73.278;2022-07-10T12:45:10;99841.47;;;28.68;36.84
73858;BME280;62195;55.030;73.278;2022-07-10T12:47:49;99858.53;;;28.75;37.59
73858;BME280;62195;55.030;73.278;2022-07-10T12:50:17;99853.34;;;28.80;36.99
73858;BME280;62195;55.030;73.278;2022-07-10T12:52:44;99863.53;;;28.85;37.13
73858;BME280;62195;55.030;73.278;2022-07-10T12:55:18;99864.53;;;28.90;37.99
73858;BME280;62195;55.030;73.278;2022-07-10T13:00:26;99869.75;;;28.92;38.31
73858;BME280;62195;55.030;73.278;2022-07-10T13:02:59;99871.66;;;28.92;37.80
73858;BME280;62195;55.030;73.278;2022-07-10T13:08:14;99864.34;;;28.72;35.74
73858;BME280;62195;55.030;73.278;2022-07-10T13:10:53;99872.69;;;28.63;35.70
73858;BME280;62195;55.030;73.278;2022-07-10T13:13:22;99871.19;;;28.54;34.58
73858;BME280;62195;55.030;73.278;2022-07-10T13:15:49;99877.81;;;28.45;34.31
73858;BME280;62195;55.030;73.278;2022-07-10T13:18:24;99872.81;;;28.35;34.38
73858;BME280;62195;55.030;73.278;2022-07-10T13:20:56;99884.00;;;28.25;34.31
73858;BME280;62195;55.030;73.278;2022-07-10T13:23:31;99888.13;;;28.14;33.67
73858;BME280;62195;55.030;73.278;2022-07-10T13:26:01;99881.44;;;28.03;33.85
73858;BME280;62195;55.030;73.278;2022-07-10T13:28:36;99879.94;;;27.94;34.18
73858;BME280;62195;55.030;73.278;2022-07-10T13:31:03;99882.56;;;27.80;33.89
73858;BME280;62195;55.030;73.278;2022-07-10T13:33:39;99880.81;;;27.66;33.81
73858;BME280;62195;55.030;73.278;2022-07-10T13:36:06;99896.03;;;27.67;33.55
73858;BME280;62195;55.030;73.278;2022-07-10T13:38:34;99900.34;;;27.61;33.41
73858;BME280;62195;55.030;73.278;2022-07-10T13:41:01;99897.16;;;27.51;33.68
73858;BME280;62195;55.030;73.278;2022-07-10T13:43:27;99894.44;;;27.44;33.64
73858;BME280;62195;55.030;73.278;2022-07-10T13:45:58;99902.28;;;27.39;33.74
73858;BME280;62195;55.030;73.278;2022-07-10T13:48:25;99905.13;;;27.30;33.45
73858;BME280;62195;55.030;73.278;2022-07-10T13:50:54;99902.56;;;27.22;33.20
73858;BME280;62195;55.030;73.278;2022-07-10T13:53:30;99897.09;;;27.15;33.06
73858;BME280;62195;55.030;73.278;2022-07-10T13:55:57;99904.13;;;27.10;33.30
73858;BME280;62195;55.030;73.278;2022-07-10T13:58:24;99908.63;;;27.02;32.84
73858;BME280;62195;55.030;73.278;2022-07-10T14:00:51;99910.25;;;26.97;33.12
73858;BME280;62195;55.030;73.278;2022-07-10T14:03:22;99907.28;;;26.92;33.14
73858;BME280;62195;55.030;73.278;2022-07-10T14:05:49;99921.34;;;26.87;33.20
73858;BME280;62195;55.030;73.278;2022-07-10T14:08:16;99925.84;;;26.80;34.14
73858;BME280;62195;55.030;73.278;2022-07-10T14:10:42;99925.81;;;26.73;35.00
73858;BME280;62195;55.030;73.278;2022-07-10T14:13:14;99921.22;;;26.73;36.05
73858;BME280;62195;55.030;73.278;2022-07-10T14:15:51;99913.28;;;26.65;35.65
73858;BME280;62195;55.030;73.278;2022-07-10T14:18:17;99918.44;;;26.67;35.77
73858;BME280;62195;55.030;73.278;2022-07-10T14:21:04;99920.16;;;26.68;36.92
73858;BME280;62195;55.030;73.278;2022-07-10T14:23:35;99914.94;;;26.66;37.44
73858;BME280;62195;55.030;73.278;2022-07-10T14:26:03;99923.66;;;26.68;37.92
73858;BME280;62195;55.030;73.278;2022-07-10T14:28:31;99921.63;;;26.70;37.14
73858;BME280;62195;55.030;73.278;2022-07-10T14:30:58;99921.22;;;26.73;37.19
73858;BME280;62195;55.030;73.278;2022-07-10T14:33:26;99932.28;;;26.79;37.51
73858;BME280;62195;55.030;73.278;2022-07-10T14:35:53;99915.47;;;26.76;37.52
73858;BME280;62195;55.030;73.278;2022-07-10T14:38:20;99934.19;;;26.85;37.77
73858;BME280;62195;55.030;73.278;2022-07-10T14:40:46;99927.75;;;26.86;38.29
73858;BME280;62195;55.030;73.278;2022-07-10T14:43:12;99936.78;;;26.93;38.46
73858;BME280;62195;55.030;73.278;2022-07-10T14:45:42;99941.75;;;26.96;38.38
73858;BME280;62195;55.030;73.278;2022-07-10T14:48:09;99935.75;;;26.94;39.05
73858;BME280;62195;55.030;73.278;2022-07-10T14:50:36;99942.66;;;27.03;38.94
73858;BME280;62195;55.030;73.278;2022-07-10T14:53:03;99948.03;;;27.03;38.94
73858;BME280;62195;55.030;73.278;2022-07-10T14:55:35;99938.94;;;27.04;39.19
73858;BME280;62195;55.030;73.278;2022-07-10T14:58:02;99938.53;;;27.08;39.25
73858;BME280;62195;55.030;73.278;2022-07-10T15:00:28;99941.22;;;27.08;39.33
73858;BME280;62195;55.030;73.278;2022-07-10T15:02:55;99945.66;;;27.15;39.58
73858;BME280;62195;55.030;73.278;2022-07-10T15:05:25;99947.31;;;27.16;38.89
73858;BME280;62195;55.030;73.278;2022-07-10T15:07:56;99931.28;;;27.08;38.47
73858;BME280;62195;55.030;73.278;2022-07-10T15:10:23;99954.47;;;27.24;38.23
73858;BME280;62195;55.030;73.278;2022-07-10T15:12:59;99955.50;;;27.23;38.21
73858;BME280;62195;55.030;73.278;2022-07-10T15:15:26;99957.44;;;27.29;37.44
73858;BME280;62195;55.030;73.278;2022-07-10T15:17:57;99952.03;;;27.29;37.49
73858;BME280;62195;55.030;73.278;2022-07-10T15:20:23;99949.97;;;27.32;36.93
73858;BME280;62195;55.030;73.278;2022-07-10T15:22:49;99946.25;;;27.33;37.00
73858;BME280;62195;55.030;73.278;2022-07-10T15:25:16;99943.75;;;27.31;36.66
73858;BME280;62195;55.030;73.278;2022-07-10T15:27:42;99957.06;;;27.33;36.51
73858;BME280;62195;55.030;73.278;2022-07-10T15:30:13;99957.88;;;27.33;36.10
73858;BME280;62195;55.030;73.278;2022-07-10T15:32:40;99956.81;;;27.34;36.17
73858;BME280;62195;55.030;73.278;2022-07-10T15:35:16;99956.00;;;27.34;36.14
73858;BME280;62195;55.030;73.278;2022-07-10T15:37:43;99954.97;;;27.35;36.32
73858;BME280;62195;55.030;73.278;2022-07-10T15:40:11;99952.91;;;27.37;35.85
73858;BME280;62195;55.030;73.278;2022-07-10T15:42:39;99959.97;;;27.38;35.82
73858;BME280;62195;55.030;73.278;2022-07-10T15:45:06;99955.41;;;27.38;35.94
73858;BME280;62195;55.030;73.278;2022-07-10T15:47:36;99959.97;;;27.38;36.51
73858;BME280;62195;55.030;73.278;2022-07-10T15:50:03;99966.03;;;27.40;35.88
73858;BME280;62195;55.030;73.278;2022-07-10T15:52:30;99963.69;;;27.37;35.45
73858;BME280;62195;55.030;73.278;2022-07-10T15:55:02;99976.75;;;27.33;35.70
73858;BME280;62195;55.030;73.278;2022-07-10T15:57:28;99976.94;;;27.32;35.49
73858;BME280;62195;55.030;73.278;2022-07-10T15:59:55;99985.63;;;27.27;35.59
73858;BME280;62195;55.030;73.278;2022-07-10T16:02:21;99986.66;;;27.26;35.78
73858;BME280;62195;55.030;73.278;2022-07-10T16:04:48;99965.56;;;27.14;35.44
73858;BME280;62195;55.030;73.278;2022-07-10T16:07:14;99981.84;;;27.21;35.42
73858;BME280;62195;55.030;73.278;2022-07-10T16:09:41;99970.97;;;27.14;35.04
73858;BME280;62195;55.030;73.278;2022-07-10T16:12:08;99978.22;;;27.14;35.61
73858;BME280;62195;55.030;73.278;2022-07-10T16:14:34;99979.00;;;27.08;35.82
73858;BME280;62195;55.030;73.278;2022-07-10T16:17:01;99985.06;;;27.10;35.53
73858;BME280;62195;55.030;73.278;2022-07-10T16:19:27;99993.16;;;27.10;35.70
73858;BME280;62195;55.030;73.278;2022-07-10T16:22:03;99996.84;;;27.09;35.37
73858;BME280;62195;55.030;73.278;2022-07-10T16:24:29;99972.84;;;26.92;35.42
73858;BME280;62195;55.030;73.278;2022-07-10T16:26:56;99998.47;;;27.03;35.25
73858;BME280;62195;55.030;73.278;2022-07-10T16:29:23;99998.66;;;27.01;35.23
73858;BME280;62195;55.030;73.278;2022-07-10T16:31:54;99990.13;;;26.98;34.83
73858;BME280;62195;55.030;73.278;2022-07-10T16:34:23;99990.72;;;26.93;34.95
73858;BME280;62195;55.030;73.278;2022-07-10T16:36:49;99992.75;;;26.91;35.31
73858;BME280;62195;55.030;73.278;2022-07-10T16:39:16;99996.09;;;26.93;35.59
73858;BME280;62195;55.030;73.278;2022-07-10T16:41:42;99974.38;;;26.80;35.21
73858;BME280;62195;55.030;73.278;2022-07-10T16:44:13;100001.00;;;26.89;35.27
73858;BME280;62195;55.030;73.278;2022-07-10T16:46:40;99998.72;;;26.86;35.12
73858;BME280;62195;55.030;73.278;2022-07-10T16:49:06;99991.84;;;26.84;35.10
73858;BME280;62195;55.030;73.278;2022-07-10T16:51:33;99986.44;;;26.84;35.17
73858;BME280;62195;55.030;73.278;2022-07-10T16:53:59;99986.44;;;26.84;36.01
73858;BME280;62195;55.030;73.278;2022-07-10T16:56:26;99990.63;;;26.86;35.84
73858;BME280;62195;55.030;73.278;2022-07-10T16:58:53;99989.41;;;26.89;35.53
73858;BME280;62195;55.030;73.278;2022-07-10T17:01:20;99994.22;;;26.94;35.91
73858;BME280;62195;55.030;73.278;2022-07-10T17:03:46;99989.50;;;26.96;35.73
73858;BME280;62195;55.030;73.278;2022-07-10T17:06:13;99983.25;;;26.95;35.65
73858;BME280;62195;55.030;73.278;2022-07-10T17:08:44;99980.81;;;27.00;35.91
73858;BME280;62195;55.030;73.278;2022-07-10T17:11:11;99988.31;;;27.05;35.27
73858;BME280;62195;55.030;73.278;2022-07-10T17:13:37;99988.75;;;27.09;35.64
73858;BME280;62195;55.030;73.278;2022-07-10T17:16:05;99988.56;;;27.10;35.78
73858;BME280;62195;55.030;73.278;2022-07-10T17:18:32;99994.81;;;27.11;35.52
73858;BME280;62195;55.030;73.278;2022-07-10T17:20:59;99991.06;;;27.12;35.64
73858;BME280;62195;55.030;73.278;2022-07-10T17:23:25;99991.06;;;27.12;35.91
73858;BME280;62195;55.030;73.278;2022-07-10T17:25:52;99982.53;;;27.08;35.66
73858;BME280;62195;55.030;73.278;2022-07-10T17:28:18;99988.75;;;27.09;36.30
73858;BME280;62195;55.030;73.278;2022-07-10T17:30:44;99982.09;;;27.04;36.18
73858;BME280;62195;55.030;73.278;2022-07-10T17:33:11;99983.75;;;27.06;36.32
73858;BME280;62195;55.030;73.278;2022-07-10T17:35:38;99973.16;;;27.04;35.55
73858;BME280;62195;55.030;73.278;2022-07-10T17:38:05;99980.41;;;27.03;35.97
73858;BME280;62195;55.030;73.278;2022-07-10T17:40:31;99967.06;;;26.95;35.17
73858;BME280;62195;55.030;73.278;2022-07-10T17:42:58;99974.38;;;27.01;35.63
73858;BME280;62195;55.030;73.278;2022-07-10T17:45:24;99975.41;;;27.00;36.46
73858;BME280;62195;55.030;73.278;2022-07-10T17:47:56;99977.47;;;26.98;35.30
73858;BME280;62195;55.030;73.278;2022-07-10T17:50:22;99979.16;;;26.99;35.91
73858;BME280;62195;55.030;73.278;2022-07-10T17:52:54;99979.16;;;26.99;35.74
73858;BME280;62195;55.030;73.278;2022-07-10T17:55:20;99978.94;;;27.01;35.23
73858;BME280;62195;55.030;73.278;2022-07-10T17:57:57;99987.03;;;27.01;35.53
73858;BME280;62195;55.030;73.278;2022-07-10T18:00:23;99975.78;;;26.97;35.45
73858;BME280;62195;55.030;73.278;2022-07-10T18:02:49;99982.47;;;27.01;35.14
73858;BME280;62195;55.030;73.278;2022-07-10T18:05:21;99991.59;;;27.00;35.76
73858;BME280;62195;55.030;73.278;2022-07-10T18:07:47;99983.50;;;27.00;35.62
73858;BME280;62195;55.030;73.278;2022-07-10T18:10:14;99980.81;;;27.00;35.27
73858;BME280;62195;55.030;73.278;2022-07-10T18:12:41;99981.84;;;26.99;35.44
73858;BME280;62195;55.030;73.278;2022-07-10T18:15:07;99991.59;;;27.00;35.60
73858;BME280;62195;55.030;73.278;2022-07-10T18:17:34;99983.88;;;26.97;35.63
73858;BME280;62195;55.030;73.278;2022-07-10T18:20:00;99985.56;;;26.98;35.62
73858;BME280;62195;55.030;73.278;2022-07-10T18:22:32;99990.31;;;26.96;35.64
73858;BME280;62195;55.030;73.278;2022-07-10T18:24:59;99985.94;;;26.95;35.03
73858;BME280;62195;55.030;73.278;2022-07-10T18:27:35;99975.16;;;26.95;35.30
73858;BME280;62195;55.030;73.278;2022-07-10T18:30:04;99986.56;;;26.97;34.61
73858;BME280;62195;55.030;73.278;2022-07-10T18:32:30;99987.78;;;26.95;34.20
73858;BME280;62195;55.030;73.278;2022-07-10T18:35:15;99986.53;;;26.90;34.54
73858;BME280;62195;55.030;73.278;2022-07-10T18:37:46;99987.53;;;26.89;35.45
73858;BME280;62195;55.030;73.278;2022-07-10T18:40:13;99985.88;;;26.88;36.32
73858;BME280;62195;55.030;73.278;2022-07-10T18:42:44;99993.13;;;26.88;36.54
73858;BME280;62195;55.030;73.278;2022-07-10T18:45:11;99990.63;;;26.86;37.28
73858;BME280;62195;55.030;73.278;2022-07-10T18:47:45;99971.03;;;26.77;38.03
73858;BME280;62195;55.030;73.278;2022-07-10T18:50:17;99985.41;;;26.85;37.70
73858;BME280;62195;55.030;73.278;2022-07-10T18:52:53;99984.59;;;26.84;38.42
73858;BME280;62195;55.030;73.278;2022-07-10T18:55:25;99986.06;;;26.87;38.56
73858;BME280;62195;55.030;73.278;2022-07-10T18:57:51;99982.53;;;26.86;39.24
73858;BME280;62195;55.030;73.278;2022-07-10T19:00:17;99979.84;;;26.86;39.24
73858;BME280;62195;55.030;73.278;2022-07-10T19:02:44;99984.19;;;26.87;39.39
73858;BME280;62195;55.030;73.278;2022-07-10T19:05:10;99981.69;;;26.86;39.59
73858;BME280;62195;55.030;73.278;2022-07-10T19:07:37;99981.50;;;26.87;40.03
73858;BME280;62195;55.030;73.278;2022-07-10T19:10:04;99980.66;;;26.87;40.71
73858;BME280;62195;55.030;73.278;2022-07-10T19:12:30;99986.06;;;26.87;40.47
73858;BME280;62195;55.030;73.278;2022-07-10T19:14:57;99984.19;;;26.87;40.68
73858;BME280;62195;55.030;73.278;2022-07-10T19:17:34;99988.97;;;26.85;40.99
73858;BME280;62195;55.030;73.278;2022-07-10T19:20:11;99988.13;;;26.85;41.27
73858;BME280;62195;55.030;73.278;2022-07-10T19:22:42;99975.41;;;26.79;41.29
73858;BME280;62195;55.030;73.278;2022-07-10T19:25:09;99981.44;;;26.81;41.70
73858;BME280;62195;55.030;73.278;2022-07-10T19:27:46;99982.72;;;26.85;41.74
73858;BME280;62195;55.030;73.278;2022-07-10T19:30:12;99983.56;;;26.85;42.02
73858;BME280;62195;55.030;73.278;2022-07-10T19:32:41;99981.50;;;26.87;41.94
73858;BME280;62195;55.030;73.278;2022-07-10T19:35:12;99978.81;;;26.87;42.18
73858;BME280;62195;55.030;73.278;2022-07-10T19:37:39;99967.41;;;26.85;42.59
73858;BME280;62195;55.030;73.278;2022-07-10T19:40:06;99979.66;;;26.88;42.41
73858;BME280;62195;55.030;73.278;2022-07-10T19:42:33;99978.81;;;26.87;42.16
73858;BME280;62195;55.030;73.278;2022-07-10T19:45:00;99967.31;;;26.79;42.42
73858;BME280;62195;55.030;73.278;2022-07-10T19:47:26;99983.16;;;26.88;42.93
73858;BME280;62195;55.030;73.278;2022-07-10T19:49:53;99984.84;;;26.89;42.56
73858;BME280;62195;55.030;73.278;2022-07-10T19:52:22;99984.03;;;26.89;43.08
73858;BME280;62195;55.030;73.278;2022-07-10T19:54:49;99977.59;;;26.90;42.70
73858;BME280;62195;55.030;73.278;2022-07-10T19:57:16;99981.31;;;26.89;42.77
73858;BME280;62195;55.030;73.278;2022-07-10T19:59:43;99973.88;;;26.91;42.51
73858;BME280;62195;55.030;73.278;2022-07-10T20:02:09;99968.47;;;26.91;42.95
73858;BME280;62195;55.030;73.278;2022-07-10T20:04:37;99973.88;;;26.91;42.55
73858;BME280;62195;55.030;73.278;2022-07-10T20:07:04;99985.31;;;26.93;42.35
73858;BME280;62195;55.030;73.278;2022-07-10T20:09:31;99974.91;;;26.90;43.06
73858;BME280;62195;55.030;73.278;2022-07-10T20:12:03;99982.81;;;26.92;43.23
73858;BME280;62195;55.030;73.278;2022-07-10T20:14:30;99965.06;;;26.82;43.23
73858;BME280;62195;55.030;73.278;2022-07-10T20:16:57;99981.59;;;26.94;43.61
73858;BME280;62195;55.030;73.278;2022-07-10T20:19:24;99968.28;;;26.93;43.08
73858;BME280;62195;55.030;73.278;2022-07-10T20:21:52;99973.50;;;26.94;43.56
73858;BME280;62195;55.030;73.278;2022-07-10T20:24:18;99964.56;;;26.94;43.33
73858;BME280;62195;55.030;73.278;2022-07-10T20:26:45;99965.22;;;26.96;43.55
73858;BME280;62195;55.030;73.278;2022-07-10T20:29:11;99969.75;;;26.95;43.79
73858;BME280;62195;55.030;73.278;2022-07-10T20:31:38;99968.72;;;26.96;43.94
73858;BME280;62195;55.030;73.278;2022-07-10T20:34:04;99964.56;;;26.94;43.25
73858;BME280;62195;55.030;73.278;2022-07-10T20:36:31;99964.38;;;26.95;43.74
73858;BME280;62195;55.030;73.278;2022-07-10T20:39:16;99956.28;;;26.95;43.91
73858;BME280;62195;55.030;73.278;2022-07-10T20:41:42;99960.63;;;26.96;43.57
73858;BME280;62195;55.030;73.278;2022-07-10T20:44:09;99958.97;;;26.95;43.70
73858;BME280;62195;55.030;73.278;2022-07-10T20:46:35;99952.38;;;26.98;43.89
73858;BME280;62195;55.030;73.278;2022-07-10T20:49:01;99961.31;;;26.98;43.84
73858;BME280;62195;55.030;73.278;2022-07-10T20:51:28;99948.63;;;26.99;43.85
73858;BME280;62195;55.030;73.278;2022-07-10T20:53:54;99952.72;;;26.95;43.95
73858;BME280;62195;55.030;73.278;2022-07-10T20:56:21;99966.69;;;26.98;43.64
73858;BME280;62195;55.030;73.278;2022-07-10T20:58:58;99966.69;;;26.98;44.06
73858;BME280;62195;55.030;73.278;2022-07-10T21:01:24;99965.66;;;26.99;44.13
73858;BME280;62195;55.030;73.278;2022-07-10T21:03:50;99963.78;;;27.00;44.49
73858;BME280;62195;55.030;73.278;2022-07-10T21:06:17;99966.03;;;26.96;44.28
73858;BME280;62195;55.030;73.278;2022-07-10T21:08:43;99966.47;;;27.00;44.52
73858;BME280;62195;55.030;73.278;2022-07-10T21:11:10;99969.19;;;27.00;44.47
73858;BME280;62195;55.030;73.278;2022-07-10T21:13:45;99963.34;;;26.96;44.69
73858;BME280;62195;55.030;73.278;2022-07-10T21:16:12;99970.38;;;26.97;44.95
73858;BME280;62195;55.030;73.278;2022-07-10T21:18:38;99975.59;;;26.99;44.96
73858;BME280;62195;55.030;73.278;2022-07-10T21:21:05;99988.06;;;27.00;44.89
73858;BME280;62195;55.030;73.278;2022-07-10T21:23:31;99987.22;;;26.99;44.98
73858;BME280;62195;55.030;73.278;2022-07-10T21:25:58;99983.50;;;27.00;44.59
73858;BME280;62195;55.030;73.278;2022-07-10T21:28:25;99983.50;;;27.00;44.69
73858;BME280;62195;55.030;73.278;2022-07-10T21:30:51;99981.63;;;27.01;45.20
73858;BME280;62195;55.030;73.278;2022-07-10T21:33:17;99979.16;;;26.99;45.14
73858;BME280;62195;55.030;73.278;2022-07-10T21:35:44;99980.81;;;27.00;44.95
73858;BME280;62195;55.030;73.278;2022-07-10T21:38:13;99987.22;;;26.99;45.15
73858;BME280;62195;55.030;73.278;2022-07-10T21:40:44;99978.13;;;27.00;45.24
73858;BME280;62195;55.030;73.278;2022-07-10T21:43:16;99987.22;;;26.99;45.56
73858;BME280;62195;55.030;73.278;2022-07-10T21:45:42;99988.06;;;27.00;45.24
73858;BME280;62195;55.030;73.278;2022-07-10T21:48:09;99983.50;;;27.00;45.16
73858;BME280;62195;55.030;73.278;2022-07-10T21:50:46;99996.81;;;27.02;45.16
73858;BME280;62195;55.030;73.278;2022-07-10T21:53:12;99994.09;;;27.02;45.64
73858;BME280;62195;55.030;73.278;2022-07-10T21:55:39;99984.13;;;27.02;45.31
73858;BME280;62195;55.030;73.278;2022-07-10T21:58:05;100000.31;;;27.02;45.56
73858;BME280;62195;55.030;73.278;2022-07-10T22:00:32;99991.97;;;26.97;45.45
73858;BME280;62195;55.030;73.278;2022-07-10T22:02:59;99996.81;;;27.02;46.04
73858;BME280;62195;55.030;73.278;2022-07-10T22:05:30;99997.00;;;27.00;45.37
73858;BME280;62195;55.030;73.278;2022-07-10T22:08:00;100000.50;;;27.01;45.98
73858;BME280;62195;55.030;73.278;2022-07-10T22:10:32;99998.22;;;26.98;46.28
73858;BME280;62195;55.030;73.278;2022-07-10T22:12:59;99991.97;;;26.97;45.90
73858;BME280;62195;55.030;73.278;2022-07-10T22:15:27;99997.00;;;27.00;45.52
73858;BME280;62195;55.030;73.278;2022-07-10T22:18:03;99996.34;;;26.98;46.09
73858;BME280;62195;55.030;73.278;2022-07-10T22:20:30;99993.66;;;26.98;45.32
73858;BME280;62195;55.030;73.278;2022-07-10T22:22:57;99999.88;;;26.99;45.53
73858;BME280;62195;55.030;73.278;2022-07-10T22:25:23;99998.22;;;26.98;45.48
73858;BME280;62195;55.030;73.278;2022-07-10T22:27:49;100005.84;;;26.94;46.11
73858;BME280;62195;55.030;73.278;2022-07-10T22:30:24;99997.38;;;26.97;45.60
73858;BME280;62195;55.030;73.278;2022-07-10T22:33:09;100000.06;;;26.97;45.77
73858;BME280;62195;55.030;73.278;2022-07-10T22:35:35;99993.00;;;26.96;45.58
73858;BME280;62195;55.030;73.278;2022-07-10T22:38:02;99992.38;;;26.94;45.41
73858;BME280;62195;55.030;73.278;2022-07-10T22:40:28;99988.28;;;26.98;45.90
73858;BME280;62195;55.030;73.278;2022-07-10T22:42:55;99983.25;;;26.95;46.02
73858;BME280;62195;55.030;73.278;2022-07-10T22:45:22;99995.50;;;26.98;45.88
73858;BME280;62195;55.030;73.278;2022-07-10T22:47:48;100001.53;;;27.00;46.16
73858;BME280;62195;55.030;73.278;2022-07-10T22:50:15;100003.41;;;26.99;46.38
73858;BME280;62195;55.030;73.278;2022-07-10T22:52:41;100005.28;;;26.99;46.70
73858;BME280;62195;55.030;73.278;2022-07-10T22:55:08;100001.53;;;27.00;46.34
73858;BME280;62195;55.030;73.278;2022-07-10T22:57:34;99998.41;;;26.96;46.63
73858;BME280;62195;55.030;73.278;2022-07-10T23:00:01;100000.72;;;26.99;46.65
73858;BME280;62195;55.030;73.278;2022-07-10T23:32:47;100010.63;;;26.77;48.11
73858;BME280;62195;55.030;73.278;2022-07-10T23:35:14;100012.97;;;26.80;48.30
73858;BME280;62195;55.030;73.278;2022-07-10T23:37:50;100017.16;;;26.83;48.21
73858;BME280;62195;55.030;73.278;2022-07-10T23:40:17;100019.66;;;26.84;48.42
73858;BME280;62195;55.030;73.278;2022-07-10T23:42:43;100014.91;;;26.86;47.98
73858;BME280;62195;55.030;73.278;2022-07-10T23:45:10;100012.00;;;26.88;48.40
73858;BME280;62195;55.030;73.278;2022-07-10T23:47:36;100008.28;;;26.89;48.60
73858;BME280;62195;55.030;73.278;2022-07-10T23:50:11;100017.19;;;26.89;48.53
73858;BME280;62195;55.030;73.278;2022-07-10T23:52:41;100009.31;;;26.88;48.60
73858;BME280;62195;55.030;73.278;2022-07-10T23:55:10;100011.63;;;26.91;48.51
73858;BME280;62195;55.030;73.278;2022-07-10T23:57:37;100014.31;;;26.91;48.23
